Lowell, Wisconsin
Current Conditions -  °F | °C
As of 10:35 PM on Saturday 20 Dec 2014 (Local Time) from KUNU Reporting Station
Haze Haze  
Wind Chill: 22°   Ceiling: 2000
Heat Index: 29°   Visibility: 4mi
Dew Point: 27°   Wind: 7mph
Humidity: 90%   Direction: 160°SSE
Pressure: 30.22"   Gusts: NA
Location:  43.34°N, 88.82°W
Report Text: KUNU 210435Z AUTO 16006KT 4SM BR OVC020 M02/M03 A3022 RMK AO2 T10161030
Loading
Personal Weather Stations






























Interactive Weather Map New forecast layout! Learn more

10-Day Weather Forecast

Advertisements
Track Severe Weather on mobile